createdAt,value
2019-03-08T00:04:47.666Z,2.15
2019-03-08T00:09:54.203Z,2.92
2019-03-08T00:15:00.750Z,1.45
2019-03-08T00:20:08.669Z,2.40
2019-03-08T00:25:15.702Z,5.17
2019-03-08T00:30:22.313Z,3.02
2019-03-08T00:35:28.914Z,4.95
2019-03-08T00:40:35.448Z,2.90
2019-03-08T00:45:42.244Z,2.77
2019-03-08T00:50:48.996Z,1.30
2019-03-08T00:55:55.915Z,3.52
2019-03-08T01:01:02.590Z,2.58
2019-03-08T01:06:09.192Z,2.98
2019-03-08T01:11:15.727Z,3.25
2019-03-08T01:16:22.256Z,3.42
2019-03-08T01:21:28.860Z,2.05
2019-03-08T01:26:35.385Z,2.67
2019-03-08T01:31:41.914Z,4.28
2019-03-08T01:36:48.540Z,1.17
2019-03-08T01:41:55.151Z,2.05
2019-03-08T01:47:02.856Z,3.00
2019-03-08T01:52:09.446Z,1.75
2019-03-08T01:57:16.038Z,4.03
2019-03-08T02:02:22.676Z,1.85
2019-03-08T02:07:29.306Z,2.45
2019-03-08T02:12:35.824Z,4.15
2019-03-08T02:17:42.444Z,1.60
2019-03-08T02:22:49.228Z,2.22
2019-03-08T02:27:55.783Z,5.53
2019-03-08T02:33:02.649Z,2.85
2019-03-08T02:38:09.165Z,3.00
2019-03-08T02:43:18.358Z,4.20
2019-03-08T02:48:24.734Z,3.85
2019-03-08T02:53:31.335Z,3.27
2019-03-08T02:58:37.958Z,2.05
2019-03-08T03:03:44.439Z,1.70
2019-03-08T03:08:51.090Z,4.03
2019-03-08T03:13:57.575Z,3.02
2019-03-08T03:19:04.109Z,2.02
2019-03-08T03:24:10.651Z,3.92
2019-03-08T03:29:17.189Z,3.17
2019-03-08T03:34:23.805Z,5.28
2019-03-08T03:39:30.315Z,2.58
2019-03-08T03:44:36.908Z,2.65
2019-03-08T03:49:43.459Z,3.92
2019-03-08T03:54:49.990Z,1.40
2019-03-08T03:59:56.559Z,2.35
2019-03-08T04:05:04.581Z,2.02
2019-03-08T04:10:12.305Z,2.70
2019-03-08T04:15:19.138Z,4.03
2019-03-08T04:20:25.876Z,3.10
2019-03-08T04:25:32.401Z,4.37
2019-03-08T04:30:40.146Z,2.15
2019-03-08T04:35:46.757Z,3.02
2019-03-08T04:40:53.218Z,3.37
2019-03-08T04:45:59.681Z,6.25
2019-03-08T04:51:06.348Z,3.83
2019-03-08T04:56:12.883Z,3.75
2019-03-08T05:01:19.298Z,2.12
2019-03-08T05:06:25.854Z,1.85
2019-03-08T05:11:32.403Z,3.45
2019-03-08T05:16:39.021Z,2.37
2019-03-08T05:21:45.550Z,4.30
2019-03-08T05:26:52.084Z,4.58
2019-03-08T05:31:58.469Z,2.10
2019-03-08T05:37:05.224Z,1.10
2019-03-08T05:42:11.681Z,1.42
2019-03-08T05:47:18.556Z,2.75
2019-03-08T05:52:25.035Z,1.07
2019-03-08T05:57:31.421Z,2.45
2019-03-08T06:02:38.228Z,1.55
2019-03-08T06:07:44.860Z,3.47
2019-03-08T06:12:51.326Z,2.52
2019-03-08T06:17:58.035Z,2.10
2019-03-08T06:23:04.851Z,2.65
2019-03-08T06:28:11.503Z,2.37
2019-03-08T06:33:17.989Z,1.37
2019-03-08T06:38:24.491Z,3.83
2019-03-08T06:43:31.247Z,2.40
2019-03-08T06:48:37.637Z,3.95
2019-03-08T06:53:44.022Z,4.65
2019-03-08T06:58:57.071Z,1.37
2019-03-08T07:04:03.537Z,4.17
2019-03-08T07:09:10.318Z,5.40
2019-03-08T07:14:16.936Z,3.30
2019-03-08T07:19:23.418Z,3.65
2019-03-08T07:24:48.909Z,1.70
2019-03-08T07:30:20.335Z,3.92
2019-03-08T07:36:03.995Z,3.25
2019-03-08T07:41:24.798Z,2.75
2019-03-08T07:46:46.880Z,6.30
2019-03-08T07:52:08.199Z,1.45
2019-03-08T07:57:36.968Z,2.75
2019-03-08T08:03:05.562Z,3.95
2019-03-08T08:08:19.567Z,1.82
2019-03-08T08:13:34.036Z,3.33
2019-03-08T08:18:58.478Z,2.22
2019-03-08T08:24:25.289Z,2.00
2019-03-08T08:29:47.246Z,3.90
2019-03-08T08:35:18.821Z,4.62
2019-03-08T08:40:44.336Z,6.75
2019-03-08T08:46:10.236Z,5.58
2019-03-08T08:51:38.425Z,3.05
2019-03-08T08:57:04.005Z,5.00
2019-03-08T09:02:32.196Z,2.83
2019-03-08T09:07:43.697Z,2.75
2019-03-08T09:12:55.814Z,6.00
2019-03-08T09:18:21.339Z,2.45
2019-03-08T09:23:46.833Z,4.95
2019-03-08T09:29:00.904Z,4.92
2019-03-08T09:34:18.582Z,5.62
2019-03-08T09:40:02.482Z,5.15
2019-03-08T09:45:17.075Z,4.10
2019-03-08T09:50:36.490Z,5.25
2019-03-08T09:56:14.283Z,2.85
2019-03-08T10:01:33.687Z,2.08
2019-03-08T10:07:01.053Z,6.30
2019-03-08T10:12:29.931Z,5.50
2019-03-08T10:17:44.253Z,4.33
2019-03-08T10:23:09.170Z,1.82
2019-03-08T10:28:43.833Z,4.67
2019-03-08T10:34:11.969Z,2.60
2019-03-08T10:39:35.914Z,6.55
2019-03-08T10:50:56.378Z,7.20
2019-03-08T10:56:09.773Z,4.42
2019-03-08T11:01:29.571Z,4.60
2019-03-08T11:06:53.766Z,5.42
2019-03-08T11:12:31.487Z,6.60
2019-03-08T11:18:03.004Z,4.80
2019-03-08T11:23:29.435Z,3.98
2019-03-08T11:28:53.832Z,4.25
2019-03-08T11:34:19.328Z,3.08
2019-03-08T11:39:35.342Z,6.58
2019-03-08T11:45:03.734Z,3.27
2019-03-08T11:50:26.706Z,3.67
2019-03-08T11:56:03.639Z,2.73
2019-03-08T12:01:35.367Z,3.77
2019-03-08T12:07:00.802Z,3.65
2019-03-08T12:12:25.389Z,1.82
2019-03-08T12:17:38.867Z,0.98
2019-03-08T12:22:53.542Z,1.02
2019-03-08T12:28:33.988Z,2.80
2019-03-08T12:33:52.772Z,1.85
2019-03-08T12:39:17.944Z,3.20
2019-03-08T12:44:33.496Z,0.95
2019-03-08T12:49:53.292Z,1.35
2019-03-08T12:55:17.300Z,0.55
2019-03-08T13:00:36.772Z,2.62
2019-03-08T13:05:59.028Z,1.65
2019-03-08T13:11:05.646Z,0.93
2019-03-08T13:16:12.270Z,1.05
2019-03-08T13:21:18.641Z,1.55
2019-03-08T13:26:25.219Z,3.40
2019-03-08T13:31:31.823Z,2.15
2019-03-08T13:36:38.460Z,1.52
2019-03-08T13:41:44.969Z,0.95
2019-03-08T13:46:51.498Z,2.30
2019-03-08T13:51:58.226Z,2.22
2019-03-08T13:57:04.759Z,1.95
2019-03-08T14:02:11.318Z,2.33
2019-03-08T14:07:17.888Z,3.70
2019-03-08T14:12:24.510Z,2.75
2019-03-08T14:17:31.260Z,3.55
2019-03-08T14:22:38.016Z,4.92
2019-03-08T14:27:44.701Z,3.00
2019-03-08T14:32:51.313Z,2.05
2019-03-08T14:37:58.058Z,2.83
2019-03-08T14:43:29.620Z,2.40
2019-03-08T14:48:36.237Z,1.55
2019-03-08T14:53:42.701Z,4.08
2019-03-08T14:58:50.613Z,3.62
2019-03-08T15:03:57.819Z,2.60
2019-03-08T15:09:06.518Z,4.17
2019-03-08T15:14:13.814Z,6.40
2019-03-08T15:19:20.427Z,5.37
2019-03-08T15:24:26.879Z,4.85
2019-03-08T15:29:33.464Z,6.15
2019-03-08T15:34:40.023Z,6.03
2019-03-08T15:39:46.488Z,5.08
2019-03-08T15:44:53.133Z,5.00
2019-03-08T15:49:59.756Z,4.17
2019-03-08T15:55:07.252Z,4.95
2019-03-08T16:00:19.154Z,4.55
2019-03-08T16:05:28.468Z,4.20
2019-03-08T16:10:34.090Z,5.33
2019-03-08T16:15:40.631Z,3.20
2019-03-08T16:20:47.169Z,5.90
2019-03-08T16:25:53.695Z,5.83
2019-03-08T16:31:09.981Z,4.62
2019-03-08T16:36:24.672Z,4.50
2019-03-08T16:41:52.386Z,6.30
2019-03-08T16:47:08.930Z,6.15
2019-03-08T16:52:41.507Z,3.80
2019-03-08T16:57:58.227Z,4.85
2019-03-08T17:03:11.772Z,5.92
2019-03-08T17:08:24.839Z,3.92
2019-03-08T17:13:53.066Z,5.28
2019-03-08T17:19:16.388Z,4.70
2019-03-08T17:24:45.412Z,5.30
2019-03-08T17:30:03.350Z,4.62
2019-03-08T17:35:31.495Z,5.90
2019-03-08T17:40:59.881Z,4.70
2019-03-08T17:46:26.073Z,3.83
2019-03-08T17:51:46.202Z,4.37
2019-03-08T17:57:14.560Z,5.25
2019-03-08T18:02:40.038Z,7.15
2019-03-08T18:07:53.516Z,4.83
2019-03-08T18:13:18.042Z,6.62
2019-03-08T18:18:43.567Z,8.13
2019-03-08T18:24:05.904Z,3.95
2019-03-08T18:29:25.121Z,5.85
2019-03-08T18:35:02.636Z,4.87
2019-03-08T18:40:35.128Z,3.65
2019-03-08T18:45:59.371Z,8.45
2019-03-08T18:51:39.953Z,4.67
2019-03-08T18:57:11.228Z,6.17
2019-03-08T19:08:11.011Z,3.67
2019-03-08T19:13:39.305Z,4.42
2019-03-08T19:19:13.848Z,3.52
2019-03-08T19:30:09.836Z,4.65
2019-03-08T19:35:53.552Z,5.05
2019-03-08T19:41:22.077Z,4.40
2019-03-08T19:46:46.882Z,8.50
2019-03-08T19:52:21.145Z,5.78
2019-03-08T20:03:14.062Z,5.78
2019-03-08T20:08:39.504Z,10.25
2019-03-08T20:14:05.027Z,8.63
2019-03-08T20:19:22.808Z,7.85
2019-03-08T20:24:37.315Z,8.13
2019-03-08T20:30:05.821Z,5.35
2019-03-08T20:35:34.378Z,4.90
2019-03-08T20:40:50.003Z,6.10
2019-03-08T20:46:30.784Z,7.78
2019-03-08T20:51:37.343Z,7.40
2019-03-08T20:56:44.248Z,8.70
2019-03-08T21:01:50.966Z,6.78
2019-03-08T21:06:57.592Z,6.70
2019-03-08T21:12:04.197Z,9.35
2019-03-08T21:17:10.829Z,8.65
2019-03-08T21:22:17.369Z,5.92
2019-03-08T21:27:23.837Z,7.97
2019-03-08T21:32:30.383Z,10.32
2019-03-08T21:37:37.013Z,9.38
2019-03-08T21:42:43.648Z,7.35
2019-03-08T21:47:50.376Z,9.33
2019-03-08T21:52:56.986Z,7.40
2019-03-08T21:58:03.517Z,7.10
2019-03-08T22:03:10.138Z,7.90
2019-03-08T22:08:17.941Z,8.03
2019-03-08T22:13:24.747Z,10.50
2019-03-08T22:18:31.226Z,11.38
2019-03-08T22:23:37.765Z,9.88
2019-03-08T22:28:44.223Z,8.98
2019-03-08T22:33:50.693Z,7.75
2019-03-08T22:38:57.222Z,10.95
2019-03-08T22:44:03.837Z,7.55
2019-03-08T22:49:10.231Z,10.48
2019-03-08T22:54:16.763Z,8.85
2019-03-08T22:59:23.152Z,9.13
2019-03-08T23:04:29.714Z,9.33
2019-03-08T23:09:36.335Z,10.43
2019-03-08T23:14:42.940Z,8.13
2019-03-08T23:19:49.552Z,8.38
2019-03-08T23:24:56.170Z,14.53
2019-03-08T23:30:07.315Z,6.15
2019-03-08T23:35:14.044Z,8.13
2019-03-08T23:40:21.647Z,6.28
2019-03-08T23:45:28.190Z,10.53
2019-03-08T23:50:34.810Z,7.50
2019-03-08T23:55:41.423Z,8.00
